Aérodrome :
LOGIN :

S'inscrire | Disclaimer

   EN    FR    IT 

 










Légende :    VFR   VFR Marginal   IFR   IFR Intensif   IFR Très Intensif
Visi : 
Plafond : 
>= 8 km
>= 3000ft
5 à 8 km
1000 à 3000 ft
1500m à 5 km
500 à 1000 ft
800 à 1500m
200 à 500 ft
< 800m
< 200 ft
Symboles :   Orages  Brouillard  Fortes neiges  Fortes précipitations  Vent > 20 kt
SIGMETs :   Divers  Orages  Givrage  Turbulence  Onde Orograph.  Cendres Volcan.






- Altitude de l'aérodrome : 336 ft
- Code IATA : GCI


EGJB - Guernsey

DERNIER METAR :
  • 120520Z 29019KT 9999 VCSH FEW022CB SCT028 08/02 Q1005

METARs EXPIRÉS :
  • 120450Z 30016KT 9999 VCSH FEW022CB SCT028 08/03 Q1005
  • 120420Z 28018KT 9999 VCSH FEW022CB BKN028 08/03 Q1005
  • 120350Z 30019KT 9999 VCSH FEW022CB SCT028 09/02 Q1005
  • 120250Z 30013KT 9999 VCSH FEW022CB SCT028 09/03 Q1005

TAF TAF EGJB
Valide du 12 à 06h jusqu'au 12 à 15h UTC


120456Z 1206/1215 30016KT 9999 FEW020CB SCT030
TEMPO 1206/1215 31022G35KT 8000 SHRA BKN020
PROB30
TEMPO 1206/1215 4000 +SHRAGS BKN015CB
ATIS : +44 1481 238 957



MET'MAP, la Météo Aéronautique d'un coup d'oeil ! - Copyright ORBIFLY Décembre 2007 - Disclaimer

ORBIFLY MET'MAP TEAM :

Programmation & Développement : Alexandra Zaïnal
Conception & Développement : Baudouin d'Aumeries
Co-Programmation & Développement : Marc-Olivier Méhu
Soutien technique & logistique : Manuel Goepfert

Contact : metmap@orbifly.com




SOURCES & CREDITS :

   NOAA